sim
Sign-in with your pilot id or email,
or register
Callsign
Passwort

Schedule Details

Flight Number: UAE504
Departure: Dubai International Airport (OMDB) at 23:55
Arrival: Mumbai Chhatrapati Shivaji International Airport (VABB) at 02:55
Route: Emirates Passenger Schedule. Enter filed route here before submitting Pirep.

Weather Information
Getting current METAR information for OMDB 191800Z 06006KT 020V100 CAVOK 37/21 Q1003 NOSIG
Getting current METAR information for VABB 191800Z 27007KT 3500 HZ SCT020 28/25 Q1010 NOSIG

Schedule Frequency

Route Map